Time;durP1;ratioP1;P1;durP2;ratioP2;P2;SDS_P1;SDS_P2;PMS_P1;PMS_P2;Temp;Humidity;BMP_temperature;BMP_pressure;BME280_temperature;BME280_humidity;BME280_pressure;Samples;Min_cycle;Max_cycle;Signal;HPM_P1;HPM_P2
2021/06/24 00:02:20;;;;;;;17.80;12.73;;;16.00;99.90;;;;;;4982694;28;20467;-81
2021/06/24 00:04:47;;;;;;;15.70;13.13;;;15.90;99.90;;;;;;4956963;28;20486;-83
2021/06/24 00:07:14;;;;;;;21.10;13.73;;;15.90;99.90;;;;;;4976783;28;20500;-81
2021/06/24 00:09:41;;;;;;;20.23;13.87;;;15.80;99.90;;;;;;4959601;28;20437;-79
2021/06/24 00:12:09;;;;;;;20.47;16.17;;;15.80;99.90;;;;;;4975312;28;20501;-82
2021/06/24 00:14:36;;;;;;;18.33;13.57;;;15.80;99.90;;;;;;4960175;28;20438;-80
2021/06/24 00:17:03;;;;;;;18.60;14.67;;;15.80;99.90;;;;;;4980885;28;20473;-79
2021/06/24 00:19:31;;;;;;;17.20;14.03;;;15.70;99.90;;;;;;4978178;28;20441;-82
2021/06/24 00:21:58;;;;;;;18.60;13.90;;;15.70;99.90;;;;;;4975077;28;20568;-82
2021/06/24 00:24:25;;;;;;;16.23;13.20;;;15.60;99.90;;;;;;4963613;28;20441;-82
2021/06/24 00:26:52;;;;;;;20.80;14.73;;;15.50;99.90;;;;;;4974524;28;20469;-80
2021/06/24 00:29:20;;;;;;;16.97;13.60;;;15.50;99.90;;;;;;4975329;28;20446;-81
2021/06/24 00:31:47;;;;;;;20.90;14.63;;;15.50;99.90;;;;;;4969065;28;20474;-80
2021/06/24 00:34:14;;;;;;;19.10;14.30;;;15.40;99.90;;;;;;4972108;28;20443;-81
2021/06/24 00:36:41;;;;;;;18.50;14.63;;;15.40;99.90;;;;;;4968079;28;20457;-81
2021/06/24 00:39:08;;;;;;;19.10;13.57;;;15.30;99.90;;;;;;4994445;28;21128;-80
2021/06/24 00:41:36;;;;;;;18.63;13.50;;;15.30;99.90;;;;;;5010240;28;20559;-82
2021/06/24 00:44:04;;;;;;;16.20;13.77;;;15.20;99.90;;;;;;5010986;28;20857;-80
2021/06/24 00:46:32;;;;;;;20.60;13.50;;;15.20;99.90;;;;;;4991793;28;20472;-78
2021/06/24 00:49:03;;;;;;;21.63;13.37;;;15.10;99.90;;;;;;5010619;28;20451;-80
2021/06/24 00:51:31;;;;;;;16.30;14.03;;;15.00;99.90;;;;;;4977651;28;20999;-78
2021/06/24 00:53:58;;;;;;;18.53;13.07;;;15.00;99.90;;;;;;5008649;28;20522;-80
2021/06/24 00:56:30;;;;;;;12.30;10.80;;;14.90;99.90;;;;;;5013393;28;20956;-81
2021/06/24 00:59:02;;;;;;;16.20;13.80;;;14.90;99.90;;;;;;5013911;28;20444;-80
2021/06/24 01:01:31;;;;;;;17.50;13.13;;;14.80;99.90;;;;;;5006173;28;20561;-81
2021/06/24 01:03:59;;;;;;;17.23;12.53;;;14.80;99.90;;;;;;4991527;28;20937;-81
2021/06/24 01:06:27;;;;;;;15.53;13.93;;;14.80;99.90;;;;;;4969349;28;20465;-81
2021/06/24 01:08:54;;;;;;;17.13;12.50;;;14.70;99.90;;;;;;4989888;28;20454;-79
2021/06/24 01:11:22;;;;;;;16.03;13.37;;;14.70;99.90;;;;;;4964139;28;20558;-81
2021/06/24 01:13:50;;;;;;;22.53;13.60;;;14.70;99.90;;;;;;4939609;28;20437;-81
2021/06/24 01:16:18;;;;;;;16.70;13.53;;;14.70;99.90;;;;;;4961968;28;20469;-81
2021/06/24 01:18:48;;;;;;;17.90;12.73;;;14.70;99.90;;;;;;4974522;28;20461;-81
2021/06/24 01:21:16;;;;;;;17.63;14.10;;;14.60;99.90;;;;;;4974471;28;20466;-81
2021/06/24 01:23:44;;;;;;;13.90;12.50;;;14.60;99.90;;;;;;4945592;28;20462;-79
2021/06/24 01:26:14;;;;;;;15.30;12.67;;;14.60;99.90;;;;;;4964698;28;20496;-82
2021/06/24 01:28:42;;;;;;;15.03;13.30;;;14.50;99.90;;;;;;4974708;28;20469;-81
2021/06/24 01:31:10;;;;;;;15.73;14.07;;;14.50;99.90;;;;;;4958110;28;20479;-80
2021/06/24 01:33:37;;;;;;;21.17;14.70;;;14.50;99.90;;;;;;4990592;28;20489;-82
2021/06/24 01:36:06;;;;;;;18.13;13.83;;;14.50;99.90;;;;;;4990338;28;20547;-78
2021/06/24 01:38:39;;;;;;;15.53;13.53;;;14.40;99.90;;;;;;5005948;28;20463;-81
2021/06/24 01:41:15;;;;;;;16.97;15.27;;;14.40;99.90;;;;;;4993092;28;20518;-81
2021/06/24 01:43:43;;;;;;;16.87;13.73;;;14.40;99.90;;;;;;4994306;28;20767;-80
2021/06/24 01:46:11;;;;;;;19.83;14.27;;;14.50;99.90;;;;;;4992608;28;20461;-80
2021/06/24 01:48:40;;;;;;;20.40;14.23;;;14.50;99.90;;;;;;5011142;28;20430;-80
2021/06/24 01:51:07;;;;;;;18.33;15.20;;;14.40;99.90;;;;;;4993307;28;20480;-80
2021/06/24 01:53:35;;;;;;;16.13;12.73;;;14.40;99.90;;;;;;4985673;28;20452;-81
2021/06/24 01:56:05;;;;;;;19.90;13.90;;;14.40;99.90;;;;;;4996818;28;20486;-80
2021/06/24 01:58:34;;;;;;;19.03;14.03;;;14.40;99.90;;;;;;5017144;28;20909;-81
2021/06/24 02:01:02;;;;;;;15.87;14.13;;;14.40;99.90;;;;;;5024213;28;20487;-81
2021/06/24 02:03:36;;;;;;;16.60;14.50;;;14.40;99.90;;;;;;4997945;28;20539;-79
2021/06/24 02:06:06;;;;;;;14.13;12.63;;;14.30;99.90;;;;;;4981291;28;20547;-79
2021/06/24 02:08:37;;;;;;;16.60;13.67;;;14.30;99.90;;;;;;5009270;28;20494;-81
2021/06/24 02:11:36;;;;;;;19.30;15.37;;;14.40;99.90;;;;;;5001890;28;20523;-81
2021/06/24 02:14:06;;;;;;;20.57;14.50;;;14.40;99.90;;;;;;4980899;28;20441;-80
2021/06/24 02:16:34;;;;;;;16.17;14.53;;;14.40;99.90;;;;;;4998494;28;20465;-80
2021/06/24 02:19:03;;;;;;;21.33;15.03;;;14.50;99.90;;;;;;4997361;28;20446;-80
2021/06/24 02:22:08;;;;;;;21.73;14.70;;;14.50;99.90;;;;;;4992966;28;20464;-80
2021/06/24 02:24:44;;;;;;;17.63;12.77;;;14.50;99.90;;;;;;4997758;28;20930;-80
2021/06/24 02:27:12;;;;;;;21.43;14.07;;;14.60;99.90;;;;;;5012754;28;20477;-80
2021/06/24 02:30:13;;;;;;;18.87;14.27;;;14.50;99.90;;;;;;4999631;28;20451;-80
2021/06/24 02:32:41;;;;;;;15.40;13.87;;;14.50;99.90;;;;;;4978512;28;20482;-80
2021/06/24 02:35:13;;;;;;;20.40;14.13;;;14.40;99.90;;;;;;4977352;28;20521;-80
2021/06/24 02:37:57;;;;;;;18.63;14.77;;;14.40;99.90;;;;;;4973549;28;20468;-79
2021/06/24 02:40:47;;;;;;;20.00;13.63;;;14.40;99.90;;;;;;4996425;28;20841;-81
2021/06/24 02:43:14;;;;;;;16.90;15.10;;;14.50;99.90;;;;;;4981081;28;20491;-80
2021/06/24 02:45:44;;;;;;;22.60;14.97;;;14.50;99.90;;;;;;4996583;28;20465;-81
2021/06/24 02:48:22;;;;;;;17.60;13.83;;;14.50;99.90;;;;;;4982404;28;20480;-80
2021/06/24 02:50:51;;;;;;;19.33;13.80;;;14.50;99.90;;;;;;4993823;28;20465;-79
2021/06/24 02:53:18;;;;;;;20.00;15.60;;;14.50;99.90;;;;;;4983810;28;20598;-80
2021/06/24 02:55:47;;;;;;;19.53;15.23;;;14.50;99.90;;;;;;4999796;28;21036;-80
2021/06/24 02:58:19;;;;;;;19.07;14.97;;;14.50;99.90;;;;;;5016111;28;20452;-79
2021/06/24 03:00:54;;;;;;;18.73;14.70;;;14.60;99.90;;;;;;5000442;28;20455;-82
2021/06/24 03:03:44;;;;;;;18.40;14.80;;;14.60;99.90;;;;;;5006953;28;20494;-80
2021/06/24 03:06:22;;;;;;;16.53;14.80;;;14.60;99.90;;;;;;4995887;28;20563;-81
2021/06/24 03:08:51;;;;;;;16.67;14.53;;;14.70;99.90;;;;;;4977840;28;20523;-81
2021/06/24 03:11:22;;;;;;;15.80;14.10;;;14.70;99.90;;;;;;4976472;28;20904;-80
2021/06/24 03:13:53;;;;;;;17.33;14.53;;;14.80;99.90;;;;;;4977915;28;20448;-82
2021/06/24 03:16:28;;;;;;;17.87;15.07;;;14.80;99.90;;;;;;4978265;28;20473;-81
2021/06/24 03:18:57;;;;;;;18.83;14.77;;;14.80;99.90;;;;;;4994178;28;20426;-81
2021/06/24 03:21:24;;;;;;;16.67;14.97;;;14.80;99.90;;;;;;4976870;28;20464;-81
2021/06/24 03:23:52;;;;;;;20.30;14.80;;;14.90;99.90;;;;;;5010133;28;20491;-80
2021/06/24 03:26:19;;;;;;;15.93;14.13;;;14.80;99.90;;;;;;4979993;28;20461;-81
2021/06/24 03:28:53;;;;;;;17.67;13.97;;;14.80;99.90;;;;;;4995988;28;20441;-81
2021/06/24 03:31:23;;;;;;;17.33;14.43;;;14.90;99.90;;;;;;5011270;28;20536;-80
2021/06/24 03:33:51;;;;;;;17.73;14.57;;;14.80;99.90;;;;;;4996539;28;20953;-82
2021/06/24 03:36:20;;;;;;;16.03;14.37;;;14.90;99.90;;;;;;4998529;28;20457;-80
2021/06/24 03:38:48;;;;;;;17.50;15.57;;;14.90;99.90;;;;;;4997906;28;20462;-80
2021/06/24 03:41:26;;;;;;;21.33;16.20;;;14.90;99.90;;;;;;4977506;28;20453;-80
2021/06/24 03:43:57;;;;;;;17.73;12.90;;;14.90;99.90;;;;;;4992864;28;20434;-80
2021/06/24 03:46:26;;;;;;;17.00;15.40;;;15.00;99.90;;;;;;4968980;28;21046;-81
2021/06/24 03:48:53;;;;;;;20.37;15.80;;;14.90;99.90;;;;;;4995725;28;20417;-81
2021/06/24 03:51:22;;;;;;;20.70;15.50;;;15.00;99.90;;;;;;4995912;28;20484;-80
2021/06/24 03:53:56;;;;;;;18.23;15.30;;;15.10;99.90;;;;;;5027005;28;20469;-81
2021/06/24 03:56:23;;;;;;;18.90;15.83;;;15.10;99.90;;;;;;5015394;28;20452;-80
2021/06/24 03:58:57;;;;;;;17.03;14.33;;;15.00;99.90;;;;;;5033160;28;20839;-81
2021/06/24 04:01:24;;;;;;;18.33;15.50;;;15.10;99.90;;;;;;4982767;28;20446;-80
2021/06/24 04:03:52;;;;;;;20.47;16.33;;;15.10;99.90;;;;;;4996867;28;20789;-80
2021/06/24 04:06:29;;;;;;;26.20;14.47;;;15.10;99.90;;;;;;4995291;28;20460;-81
2021/06/24 04:08:57;;;;;;;18.60;13.63;;;15.10;99.90;;;;;;4977442;28;20955;-81
2021/06/24 04:11:29;;;;;;;29.80;15.83;;;15.10;99.90;;;;;;4991573;28;20518;-81
2021/06/24 04:14:22;;;;;;;17.77;14.77;;;15.10;99.90;;;;;;5004908;28;20425;-81
2021/06/24 04:16:54;;;;;;;20.73;15.67;;;15.20;99.90;;;;;;4983689;28;20877;-80
2021/06/24 04:19:22;;;;;;;18.80;14.93;;;15.20;99.90;;;;;;4976193;28;20952;-79
2021/06/24 04:21:52;;;;;;;19.73;15.53;;;15.20;99.90;;;;;;4959178;28;20555;-82
2021/06/24 04:24:21;;;;;;;20.33;14.73;;;15.20;99.90;;;;;;4992387;28;21204;-81
2021/06/24 04:26:50;;;;;;;21.30;15.63;;;15.20;99.90;;;;;;5006343;28;20525;-80
2021/06/24 04:29:20;;;;;;;21.30;15.97;;;15.20;99.90;;;;;;4991693;28;20442;-80
2021/06/24 04:31:48;;;;;;;15.67;13.97;;;15.20;99.90;;;;;;5006880;28;20461;-79
2021/06/24 04:34:15;;;;;;;19.10;14.93;;;15.20;99.90;;;;;;5008120;28;20522;-81
2021/06/24 04:36:58;;;;;;;20.30;14.97;;;15.20;99.90;;;;;;4976860;28;20470;-79
2021/06/24 04:39:32;;;;;;;21.97;15.77;;;15.20;99.90;;;;;;4996255;28;20491;-81
2021/06/24 04:42:15;;;;;;;17.03;14.73;;;15.20;99.90;;;;;;4995557;28;20476;-82
2021/06/24 04:45:00;;;;;;;19.10;14.13;;;15.20;99.90;;;;;;4996586;28;20445;-82
2021/06/24 04:47:27;;;;;;;16.77;13.20;;;15.20;99.90;;;;;;4986460;28;20541;-80
2021/06/24 04:49:54;;;;;;;22.03;15.50;;;15.10;99.90;;;;;;4988224;28;20520;-80
2021/06/24 04:52:41;;;;;;;20.00;13.47;;;15.10;99.90;;;;;;4971243;28;21050;-81
2021/06/24 04:55:09;;;;;;;21.30;14.90;;;15.10;99.90;;;;;;4994319;28;20463;-81
2021/06/24 04:57:40;;;;;;;19.13;15.80;;;15.10;99.90;;;;;;4994341;28;20452;-81
2021/06/24 05:00:27;;;;;;;16.70;13.80;;;15.10;99.90;;;;;;4997169;28;20933;-81
2021/06/24 05:03:04;;;;;;;17.33;13.90;;;15.10;99.90;;;;;;4961851;28;21001;-79
2021/06/24 05:05:42;;;;;;;19.10;12.67;;;15.20;99.90;;;;;;4955037;28;20965;-81
2021/06/24 05:08:15;;;;;;;21.00;12.53;;;15.20;99.90;;;;;;4966519;28;20461;-80
2021/06/24 05:10:42;;;;;;;19.37;13.40;;;15.30;99.90;;;;;;4975844;28;20466;-81
2021/06/24 05:13:09;;;;;;;18.47;13.10;;;15.30;99.90;;;;;;4992775;28;20488;-81
2021/06/24 05:15:36;;;;;;;17.40;13.10;;;15.30;99.90;;;;;;4974727;28;20450;-80
2021/06/24 05:18:04;;;;;;;18.70;12.57;;;15.30;99.90;;;;;;4964216;28;20516;-81
2021/06/24 05:20:31;;;;;;;21.13;14.20;;;15.30;99.90;;;;;;4975603;28;20822;-81
2021/06/24 05:22:58;;;;;;;34.50;17.50;;;15.20;99.90;;;;;;4949582;28;20454;-81
2021/06/24 05:25:25;;;;;;;21.37;13.57;;;15.20;99.90;;;;;;4955867;28;20698;-80
2021/06/24 05:27:52;;;;;;;15.90;14.27;;;15.20;99.90;;;;;;4955293;28;20514;-81
2021/06/24 05:30:20;;;;;;;22.40;15.10;;;15.30;99.90;;;;;;4962949;28;21039;-81
2021/06/24 05:32:47;;;;;;;24.67;14.40;;;15.30;99.90;;;;;;4992957;28;20472;-82
2021/06/24 05:35:14;;;;;;;23.97;13.40;;;15.30;99.90;;;;;;4974514;28;20930;-81
2021/06/24 05:37:41;;;;;;;23.00;14.17;;;15.50;99.90;;;;;;4970466;28;20463;-80
2021/06/24 05:40:09;;;;;;;17.07;13.07;;;15.50;99.90;;;;;;4970977;28;20481;-81
2021/06/24 05:42:36;;;;;;;17.87;13.80;;;15.50;99.90;;;;;;4972206;28;20433;-81
2021/06/24 05:45:05;;;;;;;18.70;12.37;;;15.40;99.90;;;;;;4939753;28;20819;-80
2021/06/24 05:47:32;;;;;;;18.93;11.80;;;15.50;99.90;;;;;;4987662;28;20554;-81
2021/06/24 05:50:01;;;;;;;16.90;14.20;;;15.50;99.90;;;;;;4980155;28;20446;-81
2021/06/24 05:52:29;;;;;;;21.10;13.43;;;15.60;99.90;;;;;;4987631;28;20479;-81
2021/06/24 05:54:56;;;;;;;20.00;11.70;;;15.60;99.90;;;;;;4955309;28;20454;-81
2021/06/24 05:57:25;;;;;;;19.80;12.90;;;15.70;99.90;;;;;;4956512;28;20458;-81
2021/06/24 05:59:54;;;;;;;17.07;13.43;;;15.70;99.90;;;;;;4958663;28;20449;-80
2021/06/24 06:02:21;;;;;;;20.80;13.50;;;15.70;99.90;;;;;;4976849;28;20489;-80
2021/06/24 06:04:49;;;;;;;18.90;13.57;;;15.70;99.90;;;;;;5011339;28;20476;-82
2021/06/24 06:07:16;;;;;;;17.67;13.03;;;15.70;99.90;;;;;;5004359;28;20506;-80
2021/06/24 06:09:43;;;;;;;22.80;13.70;;;15.70;99.90;;;;;;4990980;28;20437;-80
2021/06/24 06:12:11;;;;;;;16.70;13.30;;;15.80;99.90;;;;;;4974254;28;21067;-82
2021/06/24 06:14:38;;;;;;;16.67;13.17;;;15.80;99.90;;;;;;5004875;28;20995;-80
2021/06/24 06:17:04;;;;;;;20.60;14.10;;;15.80;99.90;;;;;;4987730;28;20478;-77
2021/06/24 06:19:31;;;;;;;15.33;13.13;;;15.80;99.90;;;;;;4979869;28;20433;-80
2021/06/24 06:21:58;;;;;;;19.27;13.27;;;15.80;99.90;;;;;;4992163;28;21012;-79
2021/06/24 06:24:26;;;;;;;19.47;13.07;;;15.80;99.90;;;;;;4999003;28;20445;-81
2021/06/24 06:26:52;;;;;;;16.90;12.90;;;15.90;99.90;;;;;;4994638;28;20520;-82
2021/06/24 06:29:20;;;;;;;15.17;11.97;;;15.90;99.90;;;;;;4998220;28;20441;-80
2021/06/24 06:31:47;;;;;;;18.10;13.73;;;16.00;99.90;;;;;;4993327;28;20477;-80
2021/06/24 06:34:14;;;;;;;18.70;14.90;;;16.00;99.90;;;;;;5025885;28;20550;-81
2021/06/24 06:36:41;;;;;;;15.80;13.80;;;16.10;99.90;;;;;;5009400;28;20548;-77
2021/06/24 06:39:08;;;;;;;15.07;13.47;;;16.10;99.90;;;;;;4992646;28;20445;-80
2021/06/24 06:41:34;;;;;;;21.30;14.90;;;16.20;99.90;;;;;;5010307;28;20457;-80
2021/06/24 06:44:01;;;;;;;15.00;13.50;;;16.20;99.90;;;;;;4998348;28;20436;-79
2021/06/24 06:46:28;;;;;;;18.77;14.10;;;16.30;99.90;;;;;;4982906;28;20863;-79
2021/06/24 06:48:56;;;;;;;20.30;13.70;;;16.40;99.90;;;;;;4990702;28;20533;-76
2021/06/24 06:51:23;;;;;;;15.20;12.23;;;16.40;99.90;;;;;;4980872;28;20465;-80
2021/06/24 06:53:51;;;;;;;20.37;13.70;;;16.30;99.90;;;;;;4947353;28;20474;-81
2021/06/24 06:56:18;;;;;;;23.63;13.67;;;16.40;99.90;;;;;;4959186;28;20566;-78
2021/06/24 06:58:45;;;;;;;15.13;13.30;;;16.40;99.90;;;;;;4974028;28;20427;-77
2021/06/24 07:01:12;;;;;;;18.27;14.63;;;16.40;99.90;;;;;;4979872;28;21082;-79
2021/06/24 07:03:39;;;;;;;15.73;12.97;;;16.40;99.90;;;;;;4996500;28;20822;-80
2021/06/24 07:06:06;;;;;;;16.33;13.70;;;16.40;99.90;;;;;;4993400;28;20472;-79
2021/06/24 07:08:33;;;;;;;15.50;14.00;;;16.40;99.90;;;;;;4962049;28;20839;-79
2021/06/24 07:11:00;;;;;;;20.30;14.47;;;16.50;99.90;;;;;;4973623;28;20510;-80
2021/06/24 07:13:27;;;;;;;22.03;15.10;;;16.50;99.90;;;;;;4974634;28;20473;-80
2021/06/24 07:15:56;;;;;;;21.73;15.63;;;16.40;99.90;;;;;;4979816;28;20461;-78
2021/06/24 07:18:24;;;;;;;18.37;14.40;;;16.40;99.90;;;;;;5008985;28;20548;-80
2021/06/24 07:20:51;;;;;;;17.77;15.87;;;16.40;99.90;;;;;;4993267;28;20462;-79
2021/06/24 07:23:18;;;;;;;18.40;16.50;;;16.40;99.90;;;;;;4973260;28;20818;-79
2021/06/24 07:25:44;;;;;;;23.20;17.20;;;16.40;99.90;;;;;;4980023;28;20539;-78
2021/06/24 07:28:12;;;;;;;25.17;18.57;;;16.40;99.90;;;;;;5012425;28;20452;-80
2021/06/24 07:30:38;;;;;;;20.87;16.97;;;16.50;99.90;;;;;;4999289;28;20825;-79
2021/06/24 07:33:06;;;;;;;19.50;16.77;;;16.50;99.90;;;;;;4977366;28;20474;-80
2021/06/24 07:35:34;;;;;;;23.10;17.83;;;16.50;99.90;;;;;;4978649;28;20594;-80
2021/06/24 07:38:01;;;;;;;21.20;17.13;;;16.60;99.90;;;;;;4992026;28;20553;-80
2021/06/24 07:40:28;;;;;;;21.70;18.60;;;16.60;99.90;;;;;;4993564;28;20461;-80
2021/06/24 07:42:55;;;;;;;20.23;17.20;;;16.60;99.90;;;;;;4995390;28;20434;-79
2021/06/24 07:45:22;;;;;;;21.43;18.20;;;16.70;99.90;;;;;;4991884;28;20450;-79
2021/06/24 07:47:49;;;;;;;23.33;18.13;;;16.70;99.90;;;;;;4980995;28;20487;-79
2021/06/24 07:50:16;;;;;;;32.07;19.40;;;16.70;99.90;;;;;;4991769;28;20433;-80
2021/06/24 07:52:43;;;;;;;20.80;18.60;;;16.80;99.90;;;;;;4991883;28;20894;-76
2021/06/24 07:55:10;;;;;;;24.90;19.43;;;16.90;99.90;;;;;;4992528;28;20438;-80
2021/06/24 07:57:37;;;;;;;26.77;20.07;;;16.90;99.90;;;;;;4977946;28;20458;-80
2021/06/24 08:00:06;;;;;;;24.20;20.63;;;17.00;99.90;;;;;;4991373;28;20445;-80
2021/06/24 08:02:43;;;;;;;27.77;21.23;;;17.00;99.90;;;;;;4977049;28;20501;-77
2021/06/24 08:05:16;;;;;;;27.77;21.17;;;17.10;99.90;;;;;;4967282;28;20540;-79
2021/06/24 08:07:48;;;;;;;29.40;23.10;;;17.00;99.90;;;;;;5014981;28;20474;-79
2021/06/24 08:10:17;;;;;;;35.23;26.30;;;17.00;99.90;;;;;;4980734;28;20444;-80
2021/06/24 08:12:45;;;;;;;29.63;24.77;;;17.10;99.90;;;;;;4989665;28;20930;-79
2021/06/24 08:15:14;;;;;;;33.00;25.53;;;17.00;99.90;;;;;;4976002;28;20426;-80
2021/06/24 08:17:42;;;;;;;34.13;25.70;;;16.90;99.90;;;;;;4975275;28;20914;-80
2021/06/24 08:20:10;;;;;;;29.53;26.00;;;17.00;99.90;;;;;;4975798;28;20442;-79
2021/06/24 08:22:37;;;;;;;37.33;28.87;;;16.90;99.90;;;;;;4968958;28;20469;-81
2021/06/24 08:25:05;;;;;;;32.17;27.07;;;17.00;99.90;;;;;;4965767;28;20477;-80
2021/06/24 08:27:34;;;;;;;37.03;27.80;;;17.00;99.90;;;;;;4993244;28;20474;-80
2021/06/24 08:30:04;;;;;;;40.17;29.80;;;17.00;99.90;;;;;;4992439;28;20814;-80
2021/06/24 08:32:31;;;;;;;37.27;29.43;;;17.10;99.90;;;;;;4971000;28;20469;-79
2021/06/24 08:34:57;;;;;;;36.23;31.20;;;17.00;99.90;;;;;;4974195;28;20477;-80
2021/06/24 08:37:26;;;;;;;43.30;33.93;;;17.00;99.90;;;;;;4941117;28;20481;-79
2021/06/24 08:39:53;;;;;;;42.77;33.83;;;17.00;99.90;;;;;;4960246;28;20811;-78
2021/06/24 08:42:20;;;;;;;46.83;37.50;;;17.00;99.90;;;;;;4990087;28;21153;-80
2021/06/24 08:44:47;;;;;;;47.47;35.97;;;17.00;99.90;;;;;;4984924;28;20479;-80
2021/06/24 08:47:14;;;;;;;53.53;35.90;;;17.00;99.90;;;;;;4939741;28;20479;-80
2021/06/24 08:49:42;;;;;;;49.83;36.87;;;17.00;99.90;;;;;;4994555;28;20506;-79
2021/06/24 08:52:11;;;;;;;50.53;36.20;;;17.10;99.90;;;;;;4988234;28;20986;-79
2021/06/24 08:54:38;;;;;;;61.00;41.80;;;17.10;99.90;;;;;;4991832;28;20469;-81
2021/06/24 08:57:05;;;;;;;61.80;43.80;;;17.10;99.90;;;;;;4977413;28;20517;-77
2021/06/24 08:59:32;;;;;;;55.10;41.77;;;17.10;99.90;;;;;;4978043;28;20441;-80
2021/06/24 09:02:00;;;;;;;57.87;40.50;;;17.20;99.90;;;;;;4970190;28;20466;-79
2021/06/24 09:04:29;;;;;;;49.87;36.73;;;17.30;99.90;;;;;;4955815;28;20900;-80
2021/06/24 09:07:12;;;;;;;45.90;37.67;;;17.40;99.90;;;;;;4941400;28;20518;-79
2021/06/24 09:09:56;;;;;;;46.80;36.60;;;17.50;99.90;;;;;;4959605;28;20647;-80
2021/06/24 09:12:25;;;;;;;40.20;34.70;;;17.60;99.90;;;;;;4977715;28;20472;-78
2021/06/24 09:14:58;;;;;;;42.10;36.60;;;17.70;99.90;;;;;;4981544;28;20473;-81
2021/06/24 09:17:52;;;;;;;38.67;31.67;;;17.80;99.90;;;;;;4996234;28;20710;-82
2021/06/24 09:20:19;;;;;;;34.83;31.00;;;18.00;99.90;;;;;;4990843;28;20443;-78
2021/06/24 09:23:10;;;;;;;36.47;31.67;;;18.10;99.90;;;;;;4992234;28;20447;-81
2021/06/24 09:25:42;;;;;;;40.30;31.60;;;18.10;99.90;;;;;;4958805;28;20836;-79
2021/06/24 09:28:10;;;;;;;35.97;31.90;;;18.20;99.90;;;;;;4991345;28;20442;-79
2021/06/24 09:30:40;;;;;;;38.80;31.50;;;18.20;99.90;;;;;;4985606;28;20798;-81
2021/06/24 09:33:17;;;;;;;35.63;31.77;;;18.40;99.90;;;;;;4977779;28;20443;-79
2021/06/24 09:35:56;;;;;;;43.93;33.50;;;18.40;99.90;;;;;;4955663;28;20479;-79
2021/06/24 09:38:23;;;;;;;36.93;32.57;;;18.40;99.90;;;;;;5001615;28;20478;-79
2021/06/24 09:40:53;;;;;;;36.70;30.93;;;18.40;99.90;;;;;;5006257;28;20471;-78
2021/06/24 09:43:36;;;;;;;37.53;30.93;;;18.40;99.90;;;;;;4992007;28;20446;-79
2021/06/24 09:46:30;;;;;;;37.80;33.70;;;18.50;99.90;;;;;;5006282;28;21035;-80
2021/06/24 09:49:00;;;;;;;35.93;31.07;;;18.50;99.90;;;;;;4992144;28;20436;-80
2021/06/24 09:51:34;;;;;;;34.13;29.90;;;18.60;99.90;;;;;;4975007;28;20467;-78
2021/06/24 09:54:05;;;;;;;34.37;30.70;;;18.70;99.90;;;;;;4980380;28;20466;-78
2021/06/24 09:56:39;;;;;;;34.40;30.90;;;18.70;99.90;;;;;;5012996;28;20487;-79
2021/06/24 09:59:08;;;;;;;38.87;30.50;;;18.70;99.90;;;;;;4999124;28;20428;-76
2021/06/24 10:01:45;;;;;;;32.33;28.87;;;18.60;99.90;;;;;;4977308;28;20466;-78
2021/06/24 10:04:28;;;;;;;32.37;27.70;;;18.60;99.90;;;;;;4958078;28;20433;-78
2021/06/24 10:06:59;;;;;;;41.33;33.00;;;18.60;99.90;;;;;;4992313;28;20480;-75
2021/06/24 10:09:29;;;;;;;37.93;30.97;;;18.70;99.90;;;;;;4980036;28;20455;-80
2021/06/24 10:11:56;;;;;;;37.80;32.77;;;18.70;99.90;;;;;;5009365;28;20460;-80
2021/06/24 10:14:24;;;;;;;38.03;33.77;;;18.70;99.90;;;;;;4961818;28;20466;-79
2021/06/24 10:16:59;;;;;;;43.10;34.37;;;18.70;99.90;;;;;;4987501;28;20477;-78
2021/06/24 10:19:28;;;;;;;36.07;32.10;;;18.60;99.90;;;;;;5000195;28;20457;-80
2021/06/24 10:22:19;;;;;;;41.80;35.30;;;18.60;99.90;;;;;;4993553;28;20531;-80
2021/06/24 10:25:02;;;;;;;41.83;35.87;;;18.50;99.90;;;;;;4980568;28;20491;-80
2021/06/24 10:27:34;;;;;;;45.80;36.40;;;18.50;99.90;;;;;;5009511;28;20467;-78
2021/06/24 10:30:10;;;;;;;41.93;35.40;;;18.40;99.90;;;;;;4983592;28;20449;-79
2021/06/24 10:32:38;;;;;;;41.00;36.33;;;18.50;99.90;;;;;;4984031;28;20479;-80
2021/06/24 10:35:21;;;;;;;46.80;37.33;;;18.60;99.90;;;;;;4977540;28;20484;-80
2021/06/24 10:37:50;;;;;;;49.50;36.80;;;18.50;99.90;;;;;;4962440;28;20972;-79
2021/06/24 10:40:28;;;;;;;42.60;36.63;;;18.70;99.90;;;;;;4999238;28;20444;-79
2021/06/24 10:42:57;;;;;;;48.67;36.43;;;18.80;99.90;;;;;;5016131;28;20420;-79
2021/06/24 10:45:27;;;;;;;41.13;35.87;;;18.80;99.90;;;;;;5002064;28;20874;-79
2021/06/24 10:47:56;;;;;;;45.93;39.60;;;18.90;99.90;;;;;;4961159;28;20811;-81
2021/06/24 10:50:30;;;;;;;41.00;34.73;;;19.00;99.90;;;;;;4969038;28;20556;-80
2021/06/24 10:53:20;;;;;;;44.13;39.43;;;18.90;99.90;;;;;;4985075;28;20500;-79
2021/06/24 10:55:52;;;;;;;46.30;37.07;;;18.90;99.90;;;;;;4968271;28;20570;-78
2021/06/24 10:58:19;;;;;;;52.00;38.40;;;18.90;99.90;;;;;;4977762;28;20455;-80
2021/06/24 11:00:49;;;;;;;46.77;37.87;;;19.00;99.90;;;;;;4976502;28;20542;-78
2021/06/24 11:03:40;;;;;;;45.80;37.50;;;19.00;99.90;;;;;;4992486;28;20476;-79
2021/06/24 11:06:17;;;;;;;43.97;37.47;;;19.00;99.90;;;;;;4998226;28;20493;-79
2021/06/24 11:08:45;;;;;;;42.73;37.80;;;19.00;99.90;;;;;;4980881;28;20569;-80
2021/06/24 11:11:14;;;;;;;44.90;36.90;;;19.40;99.90;;;;;;4979520;28;20488;-79
2021/06/24 11:13:46;;;;;;;46.67;39.60;;;19.40;99.90;;;;;;4995956;28;20544;-80
2021/06/24 11:16:16;;;;;;;43.50;38.03;;;19.50;99.90;;;;;;4996643;28;20936;-78
2021/06/24 11:18:56;;;;;;;50.83;37.73;;;19.60;99.90;;;;;;4982114;28;20990;-80
2021/06/24 11:21:29;;;;;;;50.37;42.33;;;19.60;99.90;;;;;;4996606;28;20548;-81
2021/06/24 11:24:04;;;;;;;57.37;44.40;;;19.70;99.90;;;;;;4980533;28;20451;-80
2021/06/24 11:26:39;;;;;;;52.33;42.50;;;19.70;99.90;;;;;;4977282;28;20470;-80
2021/06/24 11:29:09;;;;;;;53.80;42.90;;;19.60;99.90;;;;;;4993168;28;20450;-80
2021/06/24 11:36:50;;;;;;;57.67;45.57;;;19.80;99.90;;;;;;4995612;28;20457;-77
2021/06/24 11:39:52;;;;;;;79.57;47.13;;;19.90;99.90;;;;;;4994035;28;20441;-78
2021/06/24 11:42:29;;;;;;;52.67;42.10;;;19.90;99.90;;;;;;4949582;28;21067;-77
2021/06/24 11:44:57;;;;;;;67.30;46.47;;;20.00;99.90;;;;;;4994559;28;20482;-80
2021/06/24 11:47:32;;;;;;;60.97;43.67;;;20.00;99.90;;;;;;4985745;28;20486;-80
2021/06/24 12:04:31;;;;;;;44.63;38.07;;;20.00;99.90;;;;;;4992177;28;20434;-79
2021/06/24 12:07:10;;;;;;;44.97;39.93;;;20.10;99.90;;;;;;4993166;28;20475;-79
2021/06/24 12:09:50;;;;;;;43.80;37.93;;;20.20;99.90;;;;;;4977216;28;20536;-78
2021/06/24 12:12:22;;;;;;;47.17;37.87;;;20.50;99.90;;;;;;4959581;28;20493;-80
2021/06/24 12:14:52;;;;;;;42.63;34.77;;;20.50;99.90;;;;;;4978410;28;20470;-80
2021/06/24 12:17:25;;;;;;;46.07;36.07;;;20.60;99.90;;;;;;4962409;28;20754;-79
2021/06/24 12:19:58;;;;;;;43.53;36.07;;;20.80;99.90;;;;;;4957601;28;20443;-78
2021/06/24 12:22:31;;;;;;;47.57;38.00;;;20.70;99.90;;;;;;5004458;28;20510;-79
2021/06/24 12:25:06;;;;;;;44.80;37.67;;;20.70;99.90;;;;;;4992327;28;20457;-80
2021/06/24 12:27:37;;;;;;;39.23;33.43;;;20.60;99.90;;;;;;4979302;28;20496;-79
2021/06/24 12:30:19;;;;;;;39.00;35.00;;;20.70;99.90;;;;;;4979461;28;20432;-80
2021/06/24 12:32:51;;;;;;;45.93;38.27;;;20.70;99.90;;;;;;4958694;28;20521;-80
2021/06/24 12:35:36;;;;;;;44.77;40.07;;;20.70;99.90;;;;;;4975408;28;20465;-79
2021/06/24 12:38:05;;;;;;;42.40;37.97;;;20.70;99.90;;;;;;4991095;28;20559;-79
2021/06/24 12:40:49;;;;;;;43.67;38.97;;;20.80;99.90;;;;;;4991551;28;20541;-77
2021/06/24 12:43:25;;;;;;;43.10;38.60;;;20.80;99.90;;;;;;4978253;28;20482;-78
2021/06/24 12:45:56;;;;;;;46.07;39.30;;;20.90;99.90;;;;;;4966744;28;20469;-79
2021/06/24 12:48:33;;;;;;;50.47;41.07;;;21.00;99.90;;;;;;4960132;28;20463;-79
2021/06/24 12:51:05;;;;;;;43.77;39.00;;;21.20;99.90;;;;;;4958731;28;20510;-77
2021/06/24 12:53:40;;;;;;;50.53;39.77;;;21.30;99.90;;;;;;4981352;28;20429;-79
2021/06/24 12:56:31;;;;;;;46.13;41.30;;;21.40;99.90;;;;;;4959664;28;20996;-78
2021/06/24 12:59:14;;;;;;;47.37;41.33;;;21.30;99.90;;;;;;4977993;28;20443;-76
2021/06/24 13:01:43;;;;;;;47.43;37.90;;;21.10;99.90;;;;;;4977924;28;20469;-79
2021/06/24 13:04:13;;;;;;;45.03;39.50;;;21.00;99.90;;;;;;4976625;28;20445;-79
2021/06/24 13:06:42;;;;;;;43.03;38.47;;;20.90;99.90;;;;;;4961045;28;20464;-77
2021/06/24 13:09:32;;;;;;;40.53;36.43;;;20.70;99.90;;;;;;4971654;28;20439;-80